createdAt,value
2022-08-14T00:00:35.996Z,23.07
2022-08-14T00:01:54.796Z,23.04
2022-08-14T00:02:44.342Z,23.10
2022-08-14T00:03:35.997Z,23.10
2022-08-14T00:04:42.384Z,23.12
2022-08-14T00:05:36.023Z,23.12
2022-08-14T00:06:36.032Z,23.09
2022-08-14T00:07:36.031Z,23.09
2022-08-14T00:08:44.944Z,23.04
2022-08-14T00:09:56.065Z,23.13
2022-08-14T00:10:49.961Z,23.13
2022-08-14T00:11:36.041Z,23.07
2022-08-14T00:12:37.600Z,23.05
2022-08-14T00:13:36.058Z,22.98
2022-08-14T00:14:36.074Z,22.94
2022-08-14T00:15:48.332Z,22.98
2022-08-14T00:16:45.101Z,23.01
2022-08-14T00:17:38.004Z,23.05
2022-08-14T00:19:06.455Z,22.97
2022-08-14T00:19:36.090Z,23.02
2022-08-14T00:20:42.871Z,22.95
2022-08-14T00:21:36.121Z,22.97
2022-08-14T00:22:57.235Z,22.95
2022-08-14T00:23:36.118Z,22.98
2022-08-14T00:24:36.120Z,22.98
2022-08-14T00:25:42.489Z,22.90
2022-08-14T00:26:36.161Z,22.91
2022-08-14T00:27:37.760Z,22.94
2022-08-14T00:28:37.072Z,22.95
2022-08-14T00:29:40.481Z,22.91
2022-08-14T00:30:36.147Z,22.92
2022-08-14T00:31:45.740Z,22.91
2022-08-14T00:32:53.088Z,22.98
2022-08-14T00:33:51.717Z,22.92
2022-08-14T00:34:46.394Z,22.90
2022-08-14T00:36:34.092Z,22.91
2022-08-14T00:36:48.648Z,22.95
2022-08-14T00:37:36.193Z,22.95
2022-08-14T00:38:36.193Z,22.90
2022-08-14T00:39:36.274Z,22.95
2022-08-14T00:40:36.224Z,22.91
2022-08-14T00:41:36.207Z,22.91
2022-08-14T00:42:55.802Z,22.90
2022-08-14T00:43:36.245Z,22.90
2022-08-14T00:44:36.215Z,22.95
2022-08-14T00:45:36.215Z,22.88
2022-08-14T00:46:36.226Z,22.90
2022-08-14T00:47:44.647Z,22.85
2022-08-14T00:48:36.714Z,22.92
2022-08-14T00:49:37.958Z,22.91
2022-08-14T00:50:36.267Z,22.88
2022-08-14T00:51:38.177Z,22.88
2022-08-14T00:52:36.328Z,22.90
2022-08-14T00:53:36.262Z,22.88
2022-08-14T00:54:36.278Z,22.77
2022-08-14T00:55:36.291Z,22.77
2022-08-14T00:56:36.286Z,22.85
2022-08-14T00:57:36.300Z,22.86
2022-08-14T00:58:36.302Z,22.85
2022-08-14T00:59:36.306Z,22.82
2022-08-14T01:00:42.920Z,22.73
2022-08-14T01:01:36.393Z,22.88
2022-08-14T01:02:36.335Z,22.80
2022-08-14T01:03:36.312Z,22.85
2022-08-14T01:04:38.360Z,22.76
2022-08-14T01:05:50.938Z,22.77
2022-08-14T01:06:36.354Z,22.86
2022-08-14T01:07:38.721Z,22.82
2022-08-14T01:08:51.335Z,22.80
2022-08-14T01:09:36.358Z,22.75
2022-08-14T01:10:38.342Z,22.76
2022-08-14T01:11:36.418Z,22.75
2022-08-14T01:12:40.502Z,22.70
2022-08-14T01:13:42.921Z,22.79
2022-08-14T01:14:36.372Z,22.75
2022-08-14T01:15:57.519Z,22.67
2022-08-14T01:16:36.383Z,22.65
2022-08-14T01:17:36.399Z,22.62
2022-08-14T01:20:27.573Z,22.62
2022-08-14T01:21:08.462Z,22.64
2022-08-14T01:22:08.470Z,22.62
2022-08-14T01:23:08.473Z,22.62
2022-08-14T01:24:09.800Z,22.65
2022-08-14T01:25:08.490Z,22.62
2022-08-14T01:26:11.646Z,22.64
2022-08-14T01:27:08.500Z,22.65
2022-08-14T01:28:08.510Z,22.58
2022-08-14T01:29:11.009Z,22.62
2022-08-14T01:30:08.513Z,22.67
2022-08-14T01:31:08.517Z,22.60
2022-08-14T01:32:10.569Z,22.61
2022-08-14T01:33:08.512Z,22.58
2022-08-14T01:35:19.760Z,22.62
2022-08-14T01:35:19.829Z,22.61
2022-08-14T01:36:22.871Z,22.67
2022-08-14T01:37:08.538Z,22.58
2022-08-14T01:38:08.559Z,22.57
2022-08-14T01:39:09.696Z,22.57
2022-08-14T01:40:08.585Z,22.60
2022-08-14T01:41:14.739Z,22.68
2022-08-14T01:42:31.346Z,22.60
2022-08-14T01:43:08.582Z,22.57
2022-08-14T01:44:33.562Z,22.54
2022-08-14T01:45:08.587Z,22.57
2022-08-14T01:46:08.607Z,22.60
2022-08-14T01:47:08.586Z,22.49
2022-08-14T01:48:13.976Z,22.47
2022-08-14T01:49:08.600Z,22.49
2022-08-14T01:50:08.604Z,22.51
2022-08-14T01:51:19.443Z,22.54
2022-08-14T01:52:08.797Z,22.54
2022-08-14T01:53:08.627Z,22.51
2022-08-14T01:54:08.621Z,22.51
2022-08-14T01:55:08.644Z,22.51
2022-08-14T01:56:18.112Z,22.58
2022-08-14T01:57:08.654Z,22.46
2022-08-14T01:58:19.830Z,22.46
2022-08-14T01:59:09.810Z,22.51
2022-08-14T02:00:08.670Z,22.52
2022-08-14T02:01:08.832Z,22.46
2022-08-14T02:02:09.969Z,22.51
2022-08-14T02:03:08.682Z,22.54
2022-08-14T02:04:20.485Z,22.57
2022-08-14T02:05:08.695Z,22.57
2022-08-14T02:06:33.454Z,22.52
2022-08-14T02:07:08.697Z,22.58
2022-08-14T02:08:10.065Z,22.51
2022-08-14T02:09:19.210Z,22.51
2022-08-14T02:10:08.709Z,22.49
2022-08-14T02:11:08.710Z,22.55
2022-08-14T02:12:09.075Z,22.60
2022-08-14T02:13:08.720Z,22.57
2022-08-14T02:14:08.739Z,22.54
2022-08-14T02:15:08.753Z,22.60
2022-08-14T02:16:21.917Z,22.54
2022-08-14T02:17:08.743Z,22.55
2022-08-14T02:18:08.761Z,22.55
2022-08-14T02:19:08.772Z,22.54
2022-08-14T02:20:08.762Z,22.55
2022-08-14T02:21:08.769Z,22.62
2022-08-14T02:22:08.766Z,22.61
2022-08-14T02:23:09.090Z,22.52
2022-08-14T02:24:38.375Z,22.47
2022-08-14T02:25:08.807Z,22.58
2022-08-14T02:26:24.861Z,22.51
2022-08-14T02:28:22.973Z,22.51
2022-08-14T02:28:23.589Z,22.67
2022-08-14T02:29:08.815Z,22.52
2022-08-14T02:30:08.832Z,22.67
2022-08-14T02:31:09.073Z,22.51
2022-08-14T02:32:08.820Z,22.55
2022-08-14T02:33:08.823Z,22.60
2022-08-14T02:34:19.996Z,22.54
2022-08-14T02:35:08.876Z,22.65
2022-08-14T02:37:06.331Z,22.60
2022-08-14T02:37:08.851Z,22.61
2022-08-14T02:38:11.879Z,22.64
2022-08-14T02:39:08.868Z,22.58
2022-08-14T02:40:08.864Z,22.58
2022-08-14T02:41:11.191Z,22.52
2022-08-14T02:42:13.096Z,22.60
2022-08-14T02:43:08.903Z,22.58
2022-08-14T02:44:08.890Z,22.55
2022-08-14T02:45:08.897Z,22.54
2022-08-14T02:46:08.900Z,22.55
2022-08-14T02:47:15.110Z,22.54
2022-08-14T02:48:10.498Z,22.51
2022-08-14T02:49:08.918Z,22.60
2022-08-14T02:50:08.915Z,22.55
2022-08-14T02:51:09.235Z,22.47
2022-08-14T02:52:26.743Z,22.57
2022-08-14T02:53:09.016Z,22.55
2022-08-14T02:54:08.953Z,22.51
2022-08-14T02:55:08.952Z,22.52
2022-08-14T02:56:30.465Z,22.49
2022-08-14T02:57:15.478Z,22.52
2022-08-14T02:58:08.969Z,22.54
2022-08-14T02:59:08.978Z,22.54
2022-08-14T03:00:09.972Z,22.64
2022-08-14T03:01:09.016Z,22.58
2022-08-14T03:02:08.998Z,22.52
2022-08-14T03:03:09.036Z,22.52
2022-08-14T03:04:09.005Z,22.57
2022-08-14T03:05:08.987Z,22.57
2022-08-14T03:06:09.153Z,22.61
2022-08-14T03:07:09.000Z,22.60
2022-08-14T03:08:09.013Z,22.52
2022-08-14T03:09:09.021Z,22.57
2022-08-14T03:10:28.244Z,22.55
2022-08-14T03:11:09.031Z,22.57
2022-08-14T03:12:09.033Z,22.47
2022-08-14T03:13:19.042Z,22.60
2022-08-14T03:14:09.044Z,22.55
2022-08-14T03:15:09.057Z,22.62
2022-08-14T03:16:19.935Z,22.58
2022-08-14T03:17:09.050Z,22.57
2022-08-14T03:18:09.084Z,22.43
2022-08-14T03:19:09.076Z,22.51
2022-08-14T03:20:11.141Z,22.57
2022-08-14T03:21:09.076Z,22.45
2022-08-14T03:22:09.311Z,22.49
2022-08-14T03:23:09.119Z,22.52
2022-08-14T03:24:21.406Z,22.52
2022-08-14T03:25:10.006Z,22.52
2022-08-14T03:26:13.049Z,22.55
2022-08-14T03:27:09.112Z,22.57
2022-08-14T03:28:14.433Z,22.58
2022-08-14T03:29:13.851Z,22.54
2022-08-14T03:30:14.563Z,22.60
2022-08-14T03:31:13.519Z,22.55
2022-08-14T03:32:09.143Z,22.60
2022-08-14T03:33:09.147Z,22.57
2022-08-14T03:34:10.052Z,22.61
2022-08-14T03:35:09.481Z,22.54
2022-08-14T03:37:37.590Z,22.55
2022-08-14T03:37:50.836Z,22.57
2022-08-14T03:39:12.371Z,22.55
2022-08-14T03:39:15.935Z,22.51
2022-08-14T03:40:11.375Z,22.67
2022-08-14T03:41:09.193Z,22.51
2022-08-14T03:42:19.185Z,22.55
2022-08-14T03:43:09.214Z,22.61
2022-08-14T03:45:26.633Z,22.60
2022-08-14T03:45:27.067Z,22.54
2022-08-14T03:46:10.037Z,22.57
2022-08-14T03:47:09.232Z,22.55
2022-08-14T03:48:11.084Z,22.61
2022-08-14T03:49:09.217Z,22.52
2022-08-14T03:50:09.228Z,22.61
2022-08-14T03:51:09.221Z,22.60
2022-08-14T03:52:28.163Z,22.57
2022-08-14T03:53:09.255Z,22.47
2022-08-14T03:54:09.241Z,22.47
2022-08-14T03:55:09.251Z,22.55
2022-08-14T03:56:09.263Z,22.47
2022-08-14T03:57:09.263Z,22.51
2022-08-14T03:58:09.285Z,22.47
2022-08-14T03:59:10.371Z,22.51
2022-08-14T04:00:13.389Z,22.47
2022-08-14T04:01:09.321Z,22.45
2022-08-14T04:02:32.331Z,22.54
2022-08-14T04:03:09.284Z,22.46
2022-08-14T04:04:09.297Z,22.54
2022-08-14T04:05:12.792Z,22.46
2022-08-14T04:06:09.297Z,22.54
2022-08-14T04:07:09.316Z,22.52
2022-08-14T04:08:22.785Z,22.54
2022-08-14T04:09:09.320Z,22.54
2022-08-14T04:10:09.334Z,22.52
2022-08-14T04:11:10.287Z,22.51
2022-08-14T04:12:13.507Z,22.51
2022-08-14T04:13:09.337Z,22.55
2022-08-14T04:14:09.354Z,22.49
2022-08-14T04:15:09.352Z,22.54
2022-08-14T04:16:12.394Z,22.49
2022-08-14T04:17:09.980Z,22.55
2022-08-14T04:18:09.374Z,22.60
2022-08-14T04:19:09.368Z,22.58
2022-08-14T04:20:09.982Z,22.58
2022-08-14T04:21:09.395Z,22.64
2022-08-14T04:22:09.379Z,22.54
2022-08-14T04:23:09.384Z,22.58
2022-08-14T04:24:09.402Z,22.61
2022-08-14T04:25:09.398Z,22.61
2022-08-14T04:26:14.354Z,22.62
2022-08-14T04:27:09.907Z,22.62
2022-08-14T04:28:09.417Z,22.64
2022-08-14T04:29:15.452Z,22.58
2022-08-14T04:30:09.423Z,22.55
2022-08-14T04:31:09.457Z,22.58
2022-08-14T04:32:57.601Z,22.57
2022-08-14T04:33:17.119Z,22.57
2022-08-14T04:34:17.116Z,22.57
2022-08-14T04:35:10.691Z,22.60
2022-08-14T04:36:09.477Z,22.61
2022-08-14T04:37:09.494Z,22.55
2022-08-14T04:38:36.943Z,22.54
2022-08-14T04:39:09.469Z,22.54
2022-08-14T04:40:09.471Z,22.60
2022-08-14T04:41:09.496Z,22.60
2022-08-14T04:42:14.075Z,22.55
2022-08-14T04:43:09.501Z,22.55
2022-08-14T04:44:09.499Z,22.57
2022-08-14T04:45:09.504Z,22.61
2022-08-14T04:46:09.515Z,22.67
2022-08-14T04:47:09.549Z,22.61
2022-08-14T04:48:09.977Z,22.65
2022-08-14T04:49:09.522Z,22.58
2022-08-14T04:50:09.540Z,22.64
2022-08-14T04:51:09.545Z,22.65
2022-08-14T04:52:18.910Z,22.61
2022-08-14T04:53:09.554Z,22.62
2022-08-14T04:54:09.567Z,22.68
2022-08-14T04:55:09.564Z,22.64
2022-08-14T04:56:10.622Z,22.73
2022-08-14T04:57:09.558Z,22.76
2022-08-14T04:58:09.565Z,22.77
2022-08-14T04:59:11.131Z,22.70
2022-08-14T05:00:16.158Z,22.70
2022-08-14T05:01:13.032Z,22.73
2022-08-14T05:02:09.662Z,22.76
2022-08-14T05:03:09.598Z,22.73
2022-08-14T05:04:14.736Z,22.70
2022-08-14T05:05:09.600Z,22.76
2022-08-14T05:06:35.146Z,22.73
2022-08-14T05:07:09.611Z,22.73
2022-08-14T05:08:09.768Z,22.76
2022-08-14T05:09:14.047Z,22.85
2022-08-14T05:10:13.053Z,22.77
2022-08-14T05:11:11.996Z,22.88
2022-08-14T05:13:13.234Z,22.82
2022-08-14T05:13:24.369Z,22.90
2022-08-14T05:14:33.084Z,22.91
2022-08-14T05:15:09.665Z,22.91
2022-08-14T05:16:09.690Z,22.91
2022-08-14T05:17:09.659Z,22.95
2022-08-14T05:18:17.514Z,22.91
2022-08-14T05:19:24.785Z,23.00
2022-08-14T05:21:55.359Z,23.02
2022-08-14T05:22:00.223Z,22.94
2022-08-14T05:22:16.686Z,23.09
2022-08-14T05:23:11.039Z,23.07
2022-08-14T05:24:09.720Z,23.10
2022-08-14T05:25:09.728Z,23.05
2022-08-14T05:26:09.711Z,23.09
2022-08-14T05:27:09.738Z,23.09
2022-08-14T05:28:12.507Z,23.12
2022-08-14T05:29:11.951Z,23.05
2022-08-14T05:30:09.743Z,23.13
2022-08-14T05:31:09.748Z,23.19
2022-08-14T05:32:09.757Z,23.27
2022-08-14T05:33:09.759Z,23.22
2022-08-14T05:34:09.762Z,23.33
2022-08-14T05:35:09.781Z,23.20
2022-08-14T05:36:16.536Z,23.28
2022-08-14T05:37:09.795Z,23.39
2022-08-14T05:38:10.809Z,23.39
2022-08-14T05:39:09.795Z,23.28
2022-08-14T05:40:09.782Z,23.39
2022-08-14T05:41:09.814Z,23.35
2022-08-14T05:42:21.999Z,23.40
2022-08-14T05:43:09.823Z,23.48
2022-08-14T05:44:09.815Z,23.39
2022-08-14T05:45:11.248Z,23.46
2022-08-14T05:46:09.836Z,23.54
2022-08-14T05:47:09.829Z,23.48
2022-08-14T05:48:09.839Z,23.51
2022-08-14T05:49:09.831Z,23.43
2022-08-14T05:50:18.728Z,23.55
2022-08-14T05:51:09.843Z,23.61
2022-08-14T05:52:10.059Z,23.57
2022-08-14T05:53:09.870Z,23.63
2022-08-14T05:54:11.485Z,23.63
2022-08-14T05:55:09.882Z,23.68
2022-08-14T05:56:09.893Z,23.69
2022-08-14T05:57:09.920Z,23.75
2022-08-14T05:58:09.886Z,23.75
2022-08-14T05:59:09.885Z,23.76
2022-08-14T06:00:09.898Z,23.72
2022-08-14T06:01:10.291Z,23.69
2022-08-14T06:02:10.565Z,23.79
2022-08-14T06:03:09.912Z,23.93
2022-08-14T06:04:09.925Z,23.84
2022-08-14T06:05:09.922Z,23.87
2022-08-14T06:06:09.948Z,23.88
2022-08-14T06:07:09.954Z,24.00
2022-08-14T06:08:35.431Z,24.03
2022-08-14T06:09:10.230Z,24.02
2022-08-14T06:10:09.951Z,24.08
2022-08-14T06:11:09.969Z,24.06
2022-08-14T06:12:09.987Z,24.13
2022-08-14T06:13:09.977Z,24.21
2022-08-14T06:14:12.357Z,24.25
2022-08-14T06:15:09.996Z,24.30
2022-08-14T06:16:09.997Z,24.34
2022-08-14T06:17:09.999Z,24.34
2022-08-14T06:18:09.996Z,24.34
2022-08-14T06:19:11.279Z,24.30
2022-08-14T06:20:10.312Z,24.39
2022-08-14T06:21:13.505Z,24.45
2022-08-14T06:22:10.026Z,24.52
2022-08-14T06:23:10.036Z,24.61
2022-08-14T06:24:10.446Z,24.60
2022-08-14T06:25:10.031Z,24.65
2022-08-14T06:26:10.043Z,24.64
2022-08-14T06:27:10.716Z,24.77
2022-08-14T06:28:27.175Z,24.83
2022-08-14T06:29:10.070Z,24.85
2022-08-14T06:30:10.898Z,24.90
2022-08-14T06:31:10.085Z,24.99
2022-08-14T06:32:38.413Z,25.09
2022-08-14T06:33:10.084Z,25.14
2022-08-14T06:35:03.523Z,25.18
2022-08-14T06:35:13.162Z,25.15
2022-08-14T06:36:10.104Z,25.21
2022-08-14T06:37:10.116Z,25.27
2022-08-14T06:38:13.126Z,25.33
2022-08-14T06:39:10.811Z,25.40
2022-08-14T06:40:25.489Z,25.45
2022-08-14T06:41:10.886Z,25.47
2022-08-14T06:42:32.414Z,25.55
2022-08-14T06:43:10.155Z,25.54
2022-08-14T06:44:10.158Z,25.54
2022-08-14T06:45:10.167Z,25.61
2022-08-14T06:46:22.980Z,25.61
2022-08-14T06:47:10.179Z,25.67
2022-08-14T06:48:12.662Z,25.60
2022-08-14T06:49:10.193Z,25.69
2022-08-14T06:50:10.189Z,25.75
2022-08-14T06:51:10.194Z,25.73
2022-08-14T06:52:10.207Z,25.76
2022-08-14T06:53:10.232Z,25.82
2022-08-14T06:54:10.217Z,25.90
2022-08-14T06:55:10.229Z,25.87
2022-08-14T06:56:10.228Z,25.91
2022-08-14T06:57:10.239Z,25.94
2022-08-14T06:58:24.806Z,26.06
2022-08-14T06:59:10.272Z,25.97
2022-08-14T07:00:10.255Z,26.05
2022-08-14T07:01:10.305Z,26.05
2022-08-14T07:02:13.683Z,25.99
2022-08-14T07:03:12.224Z,26.15
2022-08-14T07:04:23.137Z,26.15
2022-08-14T07:05:10.310Z,26.21
2022-08-14T07:06:11.743Z,26.26
2022-08-14T07:07:10.311Z,26.30
2022-08-14T07:08:10.301Z,26.43
2022-08-14T07:09:10.332Z,26.47
2022-08-14T07:10:16.766Z,26.51
2022-08-14T07:11:10.341Z,26.52
2022-08-14T07:12:54.694Z,26.52
2022-08-14T07:13:10.776Z,26.65
2022-08-14T07:14:10.341Z,26.58
2022-08-14T07:15:10.363Z,26.67
2022-08-14T07:16:10.382Z,26.75
2022-08-14T07:17:10.377Z,26.82
2022-08-14T07:18:10.386Z,26.77
2022-08-14T07:19:10.403Z,26.82
2022-08-14T07:20:10.407Z,26.89
2022-08-14T07:21:10.395Z,26.80
2022-08-14T07:22:20.231Z,26.81
2022-08-14T07:23:19.869Z,26.92
2022-08-14T07:24:21.400Z,26.87
2022-08-14T07:25:10.429Z,26.89
2022-08-14T07:26:10.437Z,26.95
2022-08-14T07:27:10.458Z,26.95
2022-08-14T07:28:12.819Z,26.92
2022-08-14T07:29:10.447Z,27.12
2022-08-14T07:30:33.907Z,27.06
2022-08-14T07:31:10.469Z,27.12
2022-08-14T07:32:10.490Z,27.17
2022-08-14T07:33:10.499Z,27.21
2022-08-14T07:34:11.403Z,27.19
2022-08-14T07:35:10.497Z,27.21
2022-08-14T07:36:27.887Z,27.28
2022-08-14T07:37:10.533Z,27.25
2022-08-14T07:38:10.522Z,27.28
2022-08-14T07:39:12.517Z,27.32
2022-08-14T07:40:10.585Z,27.29
2022-08-14T07:41:14.769Z,27.40
2022-08-14T07:42:10.549Z,27.44
2022-08-14T07:43:14.141Z,27.41
2022-08-14T07:44:32.099Z,27.40
2022-08-14T07:45:10.570Z,27.46
2022-08-14T07:46:10.558Z,27.39
2022-08-14T07:47:10.585Z,27.47
2022-08-14T07:48:14.825Z,27.55
2022-08-14T07:49:10.608Z,27.55
2022-08-14T07:50:10.595Z,27.51
2022-08-14T07:51:11.349Z,27.50
2022-08-14T07:52:10.615Z,27.59
2022-08-14T07:53:10.638Z,27.55
2022-08-14T07:54:11.332Z,27.59
2022-08-14T07:55:10.637Z,27.63
2022-08-14T07:56:21.790Z,27.67
2022-08-14T07:57:12.604Z,27.69
2022-08-14T07:58:31.753Z,27.67
2022-08-14T08:01:07.408Z,27.84
2022-08-14T08:01:51.051Z,27.81
2022-08-14T08:02:42.301Z,27.74
2022-08-14T08:03:42.295Z,27.90
2022-08-14T08:04:42.265Z,27.84
2022-08-14T08:05:42.268Z,27.90
2022-08-14T08:06:42.287Z,27.92
2022-08-14T08:07:42.297Z,27.92
2022-08-14T08:08:42.295Z,27.92
2022-08-14T08:09:45.667Z,27.90
2022-08-14T08:11:02.429Z,27.90
2022-08-14T08:11:42.324Z,27.97
2022-08-14T08:12:42.336Z,27.96
2022-08-14T08:13:42.327Z,28.00
2022-08-14T08:14:56.049Z,28.12
2022-08-14T08:15:42.385Z,28.06
2022-08-14T08:16:42.351Z,28.18
2022-08-14T08:17:53.372Z,28.18
2022-08-14T08:18:42.387Z,28.19
2022-08-14T08:19:42.368Z,28.27
2022-08-14T08:20:42.415Z,28.27
2022-08-14T08:21:43.889Z,28.30
2022-08-14T08:22:43.331Z,28.40
2022-08-14T08:23:50.891Z,28.43
2022-08-14T08:24:42.434Z,28.40
2022-08-14T08:25:42.436Z,28.46
2022-08-14T08:26:42.443Z,28.56
2022-08-14T08:27:44.829Z,28.62
2022-08-14T08:28:43.966Z,28.64
2022-08-14T08:29:42.462Z,28.59
2022-08-14T08:30:49.252Z,28.66
2022-08-14T08:31:44.892Z,28.74
2022-08-14T08:32:42.647Z,28.74
2022-08-14T08:33:42.551Z,28.78
2022-08-14T08:34:42.501Z,28.89
2022-08-14T08:35:46.963Z,28.85
2022-08-14T08:36:42.522Z,28.92
2022-08-14T08:37:43.635Z,28.93
2022-08-14T08:39:15.088Z,28.90
2022-08-14T08:40:02.614Z,29.00
2022-08-14T08:40:42.665Z,28.93
2022-08-14T08:41:43.416Z,28.98
2022-08-14T08:42:52.231Z,28.95
2022-08-14T08:43:45.784Z,29.05
2022-08-14T08:44:42.576Z,29.05
2022-08-14T08:45:43.479Z,28.92
2022-08-14T08:46:42.596Z,29.05
2022-08-14T08:47:42.599Z,29.05
2022-08-14T08:48:50.149Z,29.02
2022-08-14T08:49:48.443Z,29.15
2022-08-14T08:50:42.649Z,29.05
2022-08-14T08:51:42.839Z,29.09
2022-08-14T08:52:42.735Z,29.21
2022-08-14T08:53:42.677Z,29.24
2022-08-14T08:54:42.666Z,29.28
2022-08-14T08:55:42.705Z,29.24
2022-08-14T08:56:42.833Z,29.26
2022-08-14T08:57:42.693Z,29.23
2022-08-14T08:58:42.705Z,29.18
2022-08-14T08:59:42.696Z,29.14
2022-08-14T09:00:43.000Z,29.26
2022-08-14T09:01:45.418Z,29.18
2022-08-14T09:02:42.729Z,29.19
2022-08-14T09:03:44.130Z,29.27
2022-08-14T09:04:45.425Z,29.30
2022-08-14T09:05:42.770Z,29.36
2022-08-14T09:07:09.130Z,29.34
2022-08-14T09:07:42.770Z,29.37
2022-08-14T09:08:42.778Z,29.42
2022-08-14T09:09:54.509Z,29.45
2022-08-14T09:10:42.802Z,29.58
2022-08-14T09:11:42.805Z,29.64
2022-08-14T09:12:46.671Z,29.67
2022-08-14T09:13:42.812Z,29.82
2022-08-14T09:14:42.814Z,29.87
2022-08-14T09:15:42.981Z,29.83
2022-08-14T09:16:46.418Z,29.89
2022-08-14T09:17:42.880Z,29.89
2022-08-14T09:18:42.864Z,29.92
2022-08-14T09:19:42.876Z,29.97
2022-08-14T09:20:42.880Z,30.04
2022-08-14T09:21:42.886Z,30.05
2022-08-14T09:22:48.034Z,30.07
2022-08-14T09:24:26.839Z,30.08
2022-08-14T09:24:44.127Z,30.23
2022-08-14T09:25:59.018Z,30.22
2022-08-14T09:26:42.927Z,30.26
2022-08-14T09:27:42.960Z,30.24
2022-08-14T09:28:42.974Z,30.32
2022-08-14T09:29:42.964Z,30.32
2022-08-14T09:30:42.956Z,30.37
2022-08-14T09:31:53.262Z,30.46
2022-08-14T09:32:58.821Z,30.38
2022-08-14T09:33:56.270Z,30.42
2022-08-14T09:34:57.943Z,30.39
2022-08-14T09:35:43.009Z,30.37
2022-08-14T09:36:43.747Z,30.45
2022-08-14T09:37:43.018Z,30.47
2022-08-14T09:38:43.070Z,30.49
2022-08-14T09:39:43.128Z,30.51
2022-08-14T09:40:43.042Z,30.55
2022-08-14T09:42:21.370Z,30.53
2022-08-14T09:42:45.200Z,30.62
2022-08-14T09:43:43.087Z,30.61
2022-08-14T09:44:45.846Z,30.58
2022-08-14T09:45:53.070Z,30.67
2022-08-14T09:46:43.106Z,30.76
2022-08-14T09:47:43.118Z,30.70
2022-08-14T09:48:43.271Z,30.77
2022-08-14T09:49:43.131Z,30.80
2022-08-14T09:50:43.131Z,30.75
2022-08-14T09:51:45.052Z,30.76
2022-08-14T09:52:46.411Z,30.84
2022-08-14T09:54:18.741Z,30.79
2022-08-14T09:54:43.202Z,30.94
2022-08-14T09:55:43.191Z,30.88
2022-08-14T09:56:43.212Z,30.95
2022-08-14T09:57:43.218Z,30.99
2022-08-14T09:58:43.224Z,31.01
2022-08-14T09:59:43.258Z,30.95
2022-08-14T10:00:43.237Z,31.06
2022-08-14T10:01:43.261Z,31.06
2022-08-14T10:02:46.180Z,31.10
2022-08-14T10:03:43.267Z,31.17
2022-08-14T10:04:46.022Z,31.19
2022-08-14T10:05:43.286Z,31.20
2022-08-14T10:06:43.290Z,31.19
2022-08-14T10:07:47.325Z,31.21
2022-08-14T10:08:44.282Z,31.29
2022-08-14T10:09:43.319Z,31.34
2022-08-14T10:10:43.331Z,31.44
2022-08-14T10:11:45.805Z,31.38
2022-08-14T10:12:43.452Z,31.51
2022-08-14T10:13:53.365Z,31.68
2022-08-14T10:14:43.366Z,31.53
2022-08-14T10:15:43.366Z,31.54
2022-08-14T10:16:43.949Z,31.62
2022-08-14T10:17:43.399Z,31.57
2022-08-14T10:18:43.395Z,31.66
2022-08-14T10:19:43.433Z,31.72
2022-08-14T10:20:45.903Z,31.89
2022-08-14T10:21:58.131Z,31.81
2022-08-14T10:23:15.034Z,31.91
2022-08-14T10:23:43.481Z,32.10
2022-08-14T10:24:43.457Z,32.10
2022-08-14T10:25:43.478Z,32.13
2022-08-14T10:26:43.497Z,32.21
2022-08-14T10:27:43.498Z,32.28
2022-08-14T10:29:17.671Z,32.23
2022-08-14T10:29:43.507Z,32.26
2022-08-14T10:30:43.520Z,32.37
2022-08-14T10:31:45.575Z,32.45
2022-08-14T10:32:51.855Z,32.52
2022-08-14T10:33:46.889Z,32.56
2022-08-14T10:34:43.581Z,32.67
2022-08-14T10:35:47.914Z,32.78
2022-08-14T10:36:47.703Z,32.96
2022-08-14T10:37:44.222Z,33.04
2022-08-14T10:38:43.620Z,33.22
2022-08-14T10:39:51.394Z,33.38
2022-08-14T10:40:52.246Z,33.68
2022-08-14T10:41:48.632Z,33.86
2022-08-14T10:42:44.057Z,34.00
2022-08-14T10:43:43.708Z,34.19
2022-08-14T10:44:43.716Z,34.32
2022-08-14T10:45:51.869Z,34.46
2022-08-14T10:47:41.384Z,34.64
2022-08-14T10:48:09.643Z,34.80
2022-08-14T10:48:46.011Z,34.85
2022-08-14T10:49:43.784Z,34.92
2022-08-14T10:50:43.804Z,35.22
2022-08-14T10:51:43.824Z,35.34
2022-08-14T10:52:43.949Z,35.52
2022-08-14T10:53:43.854Z,35.75
2022-08-14T10:54:43.867Z,35.75
2022-08-14T10:55:45.440Z,35.62
2022-08-14T10:56:43.910Z,35.65
2022-08-14T10:57:43.937Z,35.90
2022-08-14T10:58:43.951Z,35.80
2022-08-14T10:59:43.979Z,36.29
2022-08-14T11:00:46.988Z,36.68
2022-08-14T11:01:44.004Z,36.93
2022-08-14T11:02:54.536Z,37.22
2022-08-14T11:03:56.107Z,37.59
2022-08-14T11:04:44.163Z,37.79
2022-08-14T11:05:44.085Z,38.09
2022-08-14T11:06:44.112Z,38.35
2022-08-14T11:07:44.118Z,38.47
2022-08-14T11:08:45.752Z,38.50
2022-08-14T11:09:44.148Z,38.76
2022-08-14T11:10:44.180Z,38.93
2022-08-14T11:11:44.194Z,39.11
2022-08-14T11:12:44.488Z,39.13
2022-08-14T11:13:44.237Z,39.32
2022-08-14T11:14:44.244Z,39.38
2022-08-14T11:15:44.286Z,39.51
2022-08-14T11:16:53.343Z,39.79
2022-08-14T11:17:46.031Z,40.07
2022-08-14T11:18:44.327Z,40.55
2022-08-14T11:19:44.354Z,40.76
2022-08-14T11:20:44.374Z,41.01
2022-08-14T11:21:45.704Z,41.20
2022-08-14T11:23:03.018Z,41.28
2022-08-14T11:23:44.461Z,41.62
2022-08-14T11:24:54.424Z,41.60
2022-08-14T11:25:53.178Z,41.35
2022-08-14T11:26:44.501Z,41.17
2022-08-14T11:27:44.524Z,40.80
2022-08-14T11:28:48.170Z,40.76
2022-08-14T11:29:44.558Z,40.54
2022-08-14T11:30:48.929Z,40.23
2022-08-14T11:31:44.591Z,40.38
2022-08-14T11:32:44.837Z,40.45
2022-08-14T11:33:44.655Z,40.62
2022-08-14T11:34:44.648Z,40.88
2022-08-14T11:35:48.190Z,41.02
2022-08-14T11:37:04.308Z,41.14
2022-08-14T11:39:45.612Z,41.21
2022-08-14T11:40:16.364Z,41.23
2022-08-14T11:41:17.243Z,41.29
2022-08-14T11:42:57.688Z,41.26
2022-08-14T11:43:16.453Z,41.14
2022-08-14T11:44:17.902Z,41.25
2022-08-14T11:45:17.113Z,41.11
2022-08-14T11:46:17.977Z,40.84
2022-08-14T11:47:16.455Z,40.58
2022-08-14T11:49:01.961Z,40.70
2022-08-14T11:49:22.001Z,40.65
2022-08-14T11:50:25.182Z,40.73
2022-08-14T11:51:16.514Z,40.73
2022-08-14T11:52:16.531Z,40.70
2022-08-14T11:53:16.545Z,40.80
2022-08-14T11:54:19.422Z,40.83
2022-08-14T11:55:16.585Z,40.76
2022-08-14T11:56:17.555Z,40.48
2022-08-14T11:57:18.811Z,40.32
2022-08-14T11:58:24.380Z,39.66
2022-08-14T11:59:16.633Z,39.43
2022-08-14T12:00:19.670Z,39.09
2022-08-14T12:01:16.656Z,38.54
2022-08-14T12:02:35.980Z,38.23
2022-08-14T12:03:19.796Z,37.93
2022-08-14T12:04:21.764Z,37.51
2022-08-14T12:05:16.777Z,37.07
2022-08-14T12:06:29.535Z,36.93
2022-08-14T12:07:16.740Z,36.68
2022-08-14T12:08:16.750Z,36.53
2022-08-14T12:09:16.778Z,36.31
2022-08-14T12:10:27.229Z,36.23
2022-08-14T12:11:16.797Z,35.97
2022-08-14T12:12:35.313Z,35.96
2022-08-14T12:13:17.608Z,35.84
2022-08-14T12:14:29.426Z,35.78
2022-08-14T12:15:16.842Z,35.62
2022-08-14T12:16:20.784Z,35.38
2022-08-14T12:17:16.886Z,35.37
2022-08-14T12:18:19.633Z,35.36
2022-08-14T12:19:16.909Z,35.38
2022-08-14T12:20:29.919Z,35.38
2022-08-14T12:21:19.297Z,35.34
2022-08-14T12:22:17.686Z,35.25
2022-08-14T12:23:16.981Z,34.96
2022-08-14T12:24:35.597Z,34.82
2022-08-14T12:25:16.986Z,34.72
2022-08-14T12:26:39.078Z,34.75
2022-08-14T12:27:17.071Z,34.56
2022-08-14T12:28:26.971Z,34.59
2022-08-14T12:29:17.039Z,34.61
2022-08-14T12:30:21.210Z,34.62
2022-08-14T12:31:17.050Z,34.64
2022-08-14T12:32:17.068Z,34.69
2022-08-14T12:33:17.078Z,34.65
2022-08-14T12:34:20.021Z,34.62
2022-08-14T12:35:17.121Z,34.81
2022-08-14T12:36:20.663Z,34.72
2022-08-14T12:37:17.122Z,34.84
2022-08-14T12:38:19.538Z,34.82
2022-08-14T12:39:17.190Z,34.92
2022-08-14T12:40:19.608Z,35.07
2022-08-14T12:41:21.289Z,35.11
2022-08-14T12:42:34.140Z,34.97
2022-08-14T12:43:17.208Z,34.80
2022-08-14T12:44:17.227Z,34.70
2022-08-14T12:45:17.583Z,34.78
2022-08-14T12:46:26.793Z,34.75
2022-08-14T12:47:17.251Z,34.84
2022-08-14T12:48:21.184Z,34.80
2022-08-14T12:49:17.769Z,34.82
2022-08-14T12:50:17.298Z,34.91
2022-08-14T12:51:17.314Z,34.88
2022-08-14T12:52:17.551Z,34.92
2022-08-14T12:53:17.642Z,34.92
2022-08-14T12:54:26.051Z,34.94
2022-08-14T12:55:17.362Z,34.89
2022-08-14T12:56:22.620Z,34.99
2022-08-14T12:57:20.325Z,34.94